sensor_id;sensor_type;location;lat;lon;timestamp;temperature;humidity
3919;DHT22;1974;48.670;8.994;2022-09-13T00:00:33;16.00;99.90
3919;DHT22;1974;48.670;8.994;2022-09-13T00:03:00;16.00;99.90
3919;DHT22;1974;48.670;8.994;2022-09-13T00:05:27;15.90;99.90
3919;DHT22;1974;48.670;8.994;2022-09-13T00:07:54;15.90;99.90
3919;DHT22;1974;48.670;8.994;2022-09-13T00:10:21;16.00;99.90
3919;DHT22;1974;48.670;8.994;2022-09-13T00:12:50;16.00;99.90
3919;DHT22;1974;48.670;8.994;2022-09-13T00:15:17;16.00;99.90
3919;DHT22;1974;48.670;8.994;2022-09-13T00:17:44;16.00;99.90
3919;DHT22;1974;48.670;8.994;2022-09-13T00:20:11;16.00;99.90
3919;DHT22;1974;48.670;8.994;2022-09-13T00:22:38;16.00;99.90
3919;DHT22;1974;48.670;8.994;2022-09-13T00:25:06;15.90;99.90
3919;DHT22;1974;48.670;8.994;2022-09-13T00:27:33;15.90;99.90
3919;DHT22;1974;48.670;8.994;2022-09-13T00:30:01;15.90;99.90
3919;DHT22;1974;48.670;8.994;2022-09-13T00:32:28;15.90;99.90
3919;DHT22;1974;48.670;8.994;2022-09-13T00:34:55;15.90;99.90
3919;DHT22;1974;48.670;8.994;2022-09-13T00:37:21;15.80;99.90
3919;DHT22;1974;48.670;8.994;2022-09-13T00:39:48;15.80;99.90
3919;DHT22;1974;48.670;8.994;2022-09-13T00:42:15;15.70;99.90
3919;DHT22;1974;48.670;8.994;2022-09-13T00:44:52;15.70;99.90
3919;DHT22;1974;48.670;8.994;2022-09-13T00:47:26;15.70;99.90
3919;DHT22;1974;48.670;8.994;2022-09-13T00:49:56;15.70;99.90
3919;DHT22;1974;48.670;8.994;2022-09-13T00:52:24;15.70;99.90
3919;DHT22;1974;48.670;8.994;2022-09-13T00:54:58;15.60;99.90
3919;DHT22;1974;48.670;8.994;2022-09-13T00:57:26;15.50;99.90
3919;DHT22;1974;48.670;8.994;2022-09-13T00:59:59;15.60;99.90
3919;DHT22;1974;48.670;8.994;2022-09-13T01:02:30;15.50;99.90
3919;DHT22;1974;48.670;8.994;2022-09-13T01:04:57;15.50;99.90
3919;DHT22;1974;48.670;8.994;2022-09-13T01:07:24;15.50;99.90
3919;DHT22;1974;48.670;8.994;2022-09-13T01:09:52;15.50;99.90
3919;DHT22;1974;48.670;8.994;2022-09-13T01:12:28;15.50;99.90
3919;DHT22;1974;48.670;8.994;2022-09-13T01:14:58;15.50;99.90
3919;DHT22;1974;48.670;8.994;2022-09-13T01:17:27;15.50;99.90
3919;DHT22;1974;48.670;8.994;2022-09-13T01:19:55;15.50;99.90
3919;DHT22;1974;48.670;8.994;2022-09-13T01:22:49;15.50;99.90
3919;DHT22;1974;48.670;8.994;2022-09-13T01:25:44;15.50;99.90
3919;DHT22;1974;48.670;8.994;2022-09-13T01:28:54;15.50;99.90
3919;DHT22;1974;48.670;8.994;2022-09-13T01:31:30;15.50;99.90
3919;DHT22;1974;48.670;8.994;2022-09-13T01:34:08;15.50;99.90
3919;DHT22;1974;48.670;8.994;2022-09-13T01:36:56;15.50;99.90
3919;DHT22;1974;48.670;8.994;2022-09-13T01:39:38;15.60;99.90
3919;DHT22;1974;48.670;8.994;2022-09-13T01:42:14;15.60;99.90
3919;DHT22;1974;48.670;8.994;2022-09-13T01:44:55;15.60;99.90
3919;DHT22;1974;48.670;8.994;2022-09-13T01:47:27;15.70;99.90
3919;DHT22;1974;48.670;8.994;2022-09-13T01:50:08;15.70;99.90
3919;DHT22;1974;48.670;8.994;2022-09-13T01:52:43;15.70;99.90
3919;DHT22;1974;48.670;8.994;2022-09-13T01:55:20;15.70;99.90
3919;DHT22;1974;48.670;8.994;2022-09-13T01:57:53;15.70;99.90
3919;DHT22;1974;48.670;8.994;2022-09-13T02:00:22;15.70;99.90
3919;DHT22;1974;48.670;8.994;2022-09-13T02:02:53;15.70;99.90
3919;DHT22;1974;48.670;8.994;2022-09-13T02:05:32;15.70;99.90
3919;DHT22;1974;48.670;8.994;2022-09-13T02:08:02;15.70;99.90
3919;DHT22;1974;48.670;8.994;2022-09-13T02:10:32;15.70;99.90
3919;DHT22;1974;48.670;8.994;2022-09-13T02:13:01;15.70;99.90
3919;DHT22;1974;48.670;8.994;2022-09-13T02:15:33;15.70;99.90
3919;DHT22;1974;48.670;8.994;2022-09-13T02:18:08;15.70;99.90
3919;DHT22;1974;48.670;8.994;2022-09-13T02:20:38;15.60;99.90
3919;DHT22;1974;48.670;8.994;2022-09-13T02:23:11;15.60;99.90
3919;DHT22;1974;48.670;8.994;2022-09-13T02:25:40;15.50;99.90
3919;DHT22;1974;48.670;8.994;2022-09-13T02:28:09;15.50;99.90
3919;DHT22;1974;48.670;8.994;2022-09-13T02:30:42;15.40;99.90
3919;DHT22;1974;48.670;8.994;2022-09-13T02:33:14;15.40;99.90
3919;DHT22;1974;48.670;8.994;2022-09-13T02:35:47;15.40;99.90
3919;DHT22;1974;48.670;8.994;2022-09-13T02:38:21;15.40;99.90
3919;DHT22;1974;48.670;8.994;2022-09-13T02:40:54;15.30;99.90
3919;DHT22;1974;48.670;8.994;2022-09-13T02:43:27;15.30;99.90
3919;DHT22;1974;48.670;8.994;2022-09-13T02:46:08;15.30;99.90
3919;DHT22;1974;48.670;8.994;2022-09-13T02:48:45;15.20;99.90
3919;DHT22;1974;48.670;8.994;2022-09-13T02:51:19;15.20;99.90
3919;DHT22;1974;48.670;8.994;2022-09-13T02:53:54;15.20;99.90
3919;DHT22;1974;48.670;8.994;2022-09-13T02:56:28;15.10;99.90
3919;DHT22;1974;48.670;8.994;2022-09-13T02:58:59;15.10;99.90
3919;DHT22;1974;48.670;8.994;2022-09-13T03:01:27;15.00;99.90
3919;DHT22;1974;48.670;8.994;2022-09-13T03:03:56;15.00;99.90
3919;DHT22;1974;48.670;8.994;2022-09-13T03:06:23;15.00;99.90
3919;DHT22;1974;48.670;8.994;2022-09-13T03:08:49;15.00;99.90
3919;DHT22;1974;48.670;8.994;2022-09-13T03:11:23;15.00;99.90
3919;DHT22;1974;48.670;8.994;2022-09-13T03:14:05;14.90;99.90
3919;DHT22;1974;48.670;8.994;2022-09-13T03:16:42;14.90;99.90
3919;DHT22;1974;48.670;8.994;2022-09-13T03:19:26;14.90;99.90
3919;DHT22;1974;48.670;8.994;2022-09-13T03:22:10;14.90;99.90
3919;DHT22;1974;48.670;8.994;2022-09-13T03:24:49;14.80;99.90
3919;DHT22;1974;48.670;8.994;2022-09-13T03:27:22;14.80;99.90
3919;DHT22;1974;48.670;8.994;2022-09-13T03:29:56;14.80;99.90
3919;DHT22;1974;48.670;8.994;2022-09-13T03:32:33;14.80;99.90
3919;DHT22;1974;48.670;8.994;2022-09-13T03:35:06;14.80;99.90
3919;DHT22;1974;48.670;8.994;2022-09-13T03:37:40;14.90;99.90
3919;DHT22;1974;48.670;8.994;2022-09-13T03:40:13;14.90;99.90
3919;DHT22;1974;48.670;8.994;2022-09-13T03:42:43;15.00;99.90
3919;DHT22;1974;48.670;8.994;2022-09-13T03:45:13;15.00;99.90
3919;DHT22;1974;48.670;8.994;2022-09-13T03:47:41;15.00;99.90
3919;DHT22;1974;48.670;8.994;2022-09-13T03:50:14;15.00;99.90
3919;DHT22;1974;48.670;8.994;2022-09-13T03:52:42;15.00;99.90
3919;DHT22;1974;48.670;8.994;2022-09-13T03:55:09;15.00;99.90
3919;DHT22;1974;48.670;8.994;2022-09-13T03:57:36;15.00;99.90
3919;DHT22;1974;48.670;8.994;2022-09-13T04:00:04;15.00;99.90
3919;DHT22;1974;48.670;8.994;2022-09-13T04:02:31;14.90;99.90
3919;DHT22;1974;48.670;8.994;2022-09-13T04:04:58;14.80;99.90
3919;DHT22;1974;48.670;8.994;2022-09-13T04:07:26;14.80;99.90
3919;DHT22;1974;48.670;8.994;2022-09-13T04:09:53;14.80;99.90
3919;DHT22;1974;48.670;8.994;2022-09-13T04:12:20;14.70;99.90
3919;DHT22;1974;48.670;8.994;2022-09-13T04:14:47;14.60;99.90
3919;DHT22;1974;48.670;8.994;2022-09-13T04:17:14;14.60;99.90
3919;DHT22;1974;48.670;8.994;2022-09-13T04:19:41;14.60;99.90
3919;DHT22;1974;48.670;8.994;2022-09-13T04:22:12;14.60;99.90
3919;DHT22;1974;48.670;8.994;2022-09-13T04:24:40;14.50;99.90
3919;DHT22;1974;48.670;8.994;2022-09-13T04:27:09;14.50;99.90
3919;DHT22;1974;48.670;8.994;2022-09-13T04:29:37;14.50;99.90
3919;DHT22;1974;48.670;8.994;2022-09-13T04:32:04;14.40;99.90
3919;DHT22;1974;48.670;8.994;2022-09-13T04:34:31;14.50;99.90
3919;DHT22;1974;48.670;8.994;2022-09-13T04:36:58;14.50;99.90
3919;DHT22;1974;48.670;8.994;2022-09-13T04:39:25;14.50;99.90
3919;DHT22;1974;48.670;8.994;2022-09-13T04:41:53;14.50;99.90
3919;DHT22;1974;48.670;8.994;2022-09-13T04:44:20;14.60;99.90
3919;DHT22;1974;48.670;8.994;2022-09-13T04:46:48;14.50;99.90
3919;DHT22;1974;48.670;8.994;2022-09-13T04:49:16;14.60;99.90
3919;DHT22;1974;48.670;8.994;2022-09-13T04:51:43;14.60;99.90
3919;DHT22;1974;48.670;8.994;2022-09-13T04:54:10;14.60;99.90
3919;DHT22;1974;48.670;8.994;2022-09-13T04:56:38;14.60;99.90
3919;DHT22;1974;48.670;8.994;2022-09-13T04:59:06;14.60;99.90
3919;DHT22;1974;48.670;8.994;2022-09-13T05:01:33;14.60;99.90
3919;DHT22;1974;48.670;8.994;2022-09-13T05:04:00;14.70;99.90
3919;DHT22;1974;48.670;8.994;2022-09-13T05:06:26;14.70;99.90
3919;DHT22;1974;48.670;8.994;2022-09-13T05:08:55;14.70;99.90
3919;DHT22;1974;48.670;8.994;2022-09-13T05:11:23;14.70;99.90
3919;DHT22;1974;48.670;8.994;2022-09-13T05:13:50;14.70;99.90
3919;DHT22;1974;48.670;8.994;2022-09-13T05:16:20;14.70;99.90
3919;DHT22;1974;48.670;8.994;2022-09-13T05:18:47;14.70;99.90
3919;DHT22;1974;48.670;8.994;2022-09-13T05:21:14;14.70;99.90
3919;DHT22;1974;48.670;8.994;2022-09-13T05:23:41;14.70;99.90
3919;DHT22;1974;48.670;8.994;2022-09-13T05:26:08;14.60;99.90
3919;DHT22;1974;48.670;8.994;2022-09-13T05:28:35;14.60;99.90
3919;DHT22;1974;48.670;8.994;2022-09-13T05:31:05;14.60;99.90
3919;DHT22;1974;48.670;8.994;2022-09-13T05:33:35;14.60;99.90
3919;DHT22;1974;48.670;8.994;2022-09-13T05:36:03;14.60;99.90
3919;DHT22;1974;48.670;8.994;2022-09-13T05:38:30;14.60;99.90
3919;DHT22;1974;48.670;8.994;2022-09-13T05:40:58;14.60;99.90
3919;DHT22;1974;48.670;8.994;2022-09-13T05:43:26;14.60;99.90
3919;DHT22;1974;48.670;8.994;2022-09-13T05:45:59;14.70;99.90
3919;DHT22;1974;48.670;8.994;2022-09-13T05:48:27;14.70;99.90
3919;DHT22;1974;48.670;8.994;2022-09-13T05:50:55;14.70;99.90
3919;DHT22;1974;48.670;8.994;2022-09-13T05:53:22;14.70;99.90
3919;DHT22;1974;48.670;8.994;2022-09-13T05:55:48;14.70;99.90
3919;DHT22;1974;48.670;8.994;2022-09-13T05:58:15;14.70;99.90
3919;DHT22;1974;48.670;8.994;2022-09-13T06:00:42;14.70;99.90
3919;DHT22;1974;48.670;8.994;2022-09-13T06:03:09;14.80;99.90
3919;DHT22;1974;48.670;8.994;2022-09-13T06:05:35;14.80;99.90
3919;DHT22;1974;48.670;8.994;2022-09-13T06:08:03;14.90;99.90
3919;DHT22;1974;48.670;8.994;2022-09-13T06:10:30;15.00;99.90
3919;DHT22;1974;48.670;8.994;2022-09-13T06:12:58;15.10;99.90
3919;DHT22;1974;48.670;8.994;2022-09-13T06:15:24;15.20;99.90
3919;DHT22;1974;48.670;8.994;2022-09-13T06:17:51;15.30;99.90
3919;DHT22;1974;48.670;8.994;2022-09-13T06:20:18;15.40;99.90
3919;DHT22;1974;48.670;8.994;2022-09-13T06:22:46;15.40;99.90
3919;DHT22;1974;48.670;8.994;2022-09-13T06:25:15;15.50;99.90
3919;DHT22;1974;48.670;8.994;2022-09-13T06:27:42;15.40;99.90
3919;DHT22;1974;48.670;8.994;2022-09-13T06:30:09;15.40;99.90
3919;DHT22;1974;48.670;8.994;2022-09-13T06:32:37;15.40;99.90
3919;DHT22;1974;48.670;8.994;2022-09-13T06:35:05;15.40;99.90
3919;DHT22;1974;48.670;8.994;2022-09-13T06:37:31;15.30;99.90
3919;DHT22;1974;48.670;8.994;2022-09-13T06:39:58;15.30;99.90
3919;DHT22;1974;48.670;8.994;2022-09-13T06:42:26;15.40;99.90
3919;DHT22;1974;48.670;8.994;2022-09-13T06:44:53;15.40;99.90
3919;DHT22;1974;48.670;8.994;2022-09-13T06:47:20;15.50;99.90
3919;DHT22;1974;48.670;8.994;2022-09-13T06:49:46;15.60;99.90
3919;DHT22;1974;48.670;8.994;2022-09-13T06:52:13;15.70;99.90
3919;DHT22;1974;48.670;8.994;2022-09-13T06:54:40;15.80;99.90
3919;DHT22;1974;48.670;8.994;2022-09-13T06:57:06;15.90;99.90
3919;DHT22;1974;48.670;8.994;2022-09-13T06:59:35;16.00;99.90
3919;DHT22;1974;48.670;8.994;2022-09-13T07:02:01;16.10;99.90
3919;DHT22;1974;48.670;8.994;2022-09-13T07:04:28;16.30;99.90
3919;DHT22;1974;48.670;8.994;2022-09-13T07:06:56;16.30;99.90
3919;DHT22;1974;48.670;8.994;2022-09-13T07:09:24;16.50;99.90
3919;DHT22;1974;48.670;8.994;2022-09-13T07:11:53;16.60;99.90
3919;DHT22;1974;48.670;8.994;2022-09-13T07:14:22;16.70;99.90
3919;DHT22;1974;48.670;8.994;2022-09-13T07:16:51;16.90;99.90
3919;DHT22;1974;48.670;8.994;2022-09-13T07:19:19;17.00;99.90
3919;DHT22;1974;48.670;8.994;2022-09-13T07:21:48;17.20;99.90
3919;DHT22;1974;48.670;8.994;2022-09-13T07:24:15;17.30;99.90
3919;DHT22;1974;48.670;8.994;2022-09-13T07:26:42;17.60;99.90
3919;DHT22;1974;48.670;8.994;2022-09-13T07:29:11;17.80;99.90
3919;DHT22;1974;48.670;8.994;2022-09-13T07:31:40;18.00;99.90
3919;DHT22;1974;48.670;8.994;2022-09-13T07:34:12;18.10;99.90
3919;DHT22;1974;48.670;8.994;2022-09-13T07:36:39;18.20;99.90
3919;DHT22;1974;48.670;8.994;2022-09-13T07:39:06;18.30;99.90
3919;DHT22;1974;48.670;8.994;2022-09-13T07:41:33;18.50;99.90
3919;DHT22;1974;48.670;8.994;2022-09-13T07:44:02;18.70;99.90
3919;DHT22;1974;48.670;8.994;2022-09-13T07:46:30;19.00;99.90
3919;DHT22;1974;48.670;8.994;2022-09-13T07:48:59;19.10;99.90
3919;DHT22;1974;48.670;8.994;2022-09-13T07:51:28;19.20;99.90
3919;DHT22;1974;48.670;8.994;2022-09-13T07:53:57;19.20;99.90
3919;DHT22;1974;48.670;8.994;2022-09-13T07:56:26;19.20;99.90
3919;DHT22;1974;48.670;8.994;2022-09-13T07:58:53;19.20;99.90
3919;DHT22;1974;48.670;8.994;2022-09-13T08:01:22;19.30;99.90
3919;DHT22;1974;48.670;8.994;2022-09-13T08:03:53;19.50;99.90
3919;DHT22;1974;48.670;8.994;2022-09-13T08:06:20;19.70;99.90
3919;DHT22;1974;48.670;8.994;2022-09-13T08:08:48;20.00;99.90
3919;DHT22;1974;48.670;8.994;2022-09-13T08:11:17;20.30;99.90
3919;DHT22;1974;48.670;8.994;2022-09-13T08:13:44;20.60;99.90
3919;DHT22;1974;48.670;8.994;2022-09-13T08:16:12;21.00;99.90
3919;DHT22;1974;48.670;8.994;2022-09-13T08:18:42;21.20;99.90
3919;DHT22;1974;48.670;8.994;2022-09-13T08:21:10;21.30;99.90
3919;DHT22;1974;48.670;8.994;2022-09-13T08:23:37;21.40;99.90
3919;DHT22;1974;48.670;8.994;2022-09-13T08:26:05;21.50;99.90
3919;DHT22;1974;48.670;8.994;2022-09-13T08:28:33;21.50;99.90
3919;DHT22;1974;48.670;8.994;2022-09-13T08:31:05;21.60;99.90
3919;DHT22;1974;48.670;8.994;2022-09-13T08:33:32;21.80;99.90
3919;DHT22;1974;48.670;8.994;2022-09-13T08:36:00;21.90;99.90
3919;DHT22;1974;48.670;8.994;2022-09-13T08:38:27;22.00;99.90
3919;DHT22;1974;48.670;8.994;2022-09-13T08:40:55;22.10;99.90
3919;DHT22;1974;48.670;8.994;2022-09-13T08:43:37;22.20;99.90
3919;DHT22;1974;48.670;8.994;2022-09-13T08:46:11;22.30;99.90
3919;DHT22;1974;48.670;8.994;2022-09-13T08:48:44;22.50;99.90
3919;DHT22;1974;48.670;8.994;2022-09-13T08:51:24;22.60;99.90
3919;DHT22;1974;48.670;8.994;2022-09-13T08:53:52;22.80;99.90
3919;DHT22;1974;48.670;8.994;2022-09-13T08:56:23;23.10;99.90
3919;DHT22;1974;48.670;8.994;2022-09-13T08:59:04;23.30;99.90
3919;DHT22;1974;48.670;8.994;2022-09-13T09:01:47;23.30;99.90
3919;DHT22;1974;48.670;8.994;2022-09-13T09:04:30;23.30;99.90
3919;DHT22;1974;48.670;8.994;2022-09-13T09:07:03;23.40;99.90
3919;DHT22;1974;48.670;8.994;2022-09-13T09:09:34;23.60;99.90
3919;DHT22;1974;48.670;8.994;2022-09-13T09:12:12;24.00;99.90
3919;DHT22;1974;48.670;8.994;2022-09-13T09:14:43;24.40;99.90
3919;DHT22;1974;48.670;8.994;2022-09-13T09:17:15;24.60;99.90
3919;DHT22;1974;48.670;8.994;2022-09-13T09:19:46;24.50;99.90
3919;DHT22;1974;48.670;8.994;2022-09-13T09:22:16;24.50;99.90
3919;DHT22;1974;48.670;8.994;2022-09-13T09:24:45;24.40;99.90
3919;DHT22;1974;48.670;8.994;2022-09-13T09:27:15;24.50;99.90
3919;DHT22;1974;48.670;8.994;2022-09-13T09:29:44;24.60;99.90
3919;DHT22;1974;48.670;8.994;2022-09-13T09:32:22;24.70;99.90
3919;DHT22;1974;48.670;8.994;2022-09-13T09:35:07;25.00;99.90
3919;DHT22;1974;48.670;8.994;2022-09-13T09:37:38;25.20;99.90
3919;DHT22;1974;48.670;8.994;2022-09-13T09:40:10;25.40;99.90
3919;DHT22;1974;48.670;8.994;2022-09-13T09:42:40;25.40;99.90
3919;DHT22;1974;48.670;8.994;2022-09-13T09:45:23;25.30;99.90
3919;DHT22;1974;48.670;8.994;2022-09-13T09:47:51;25.40;99.90
3919;DHT22;1974;48.670;8.994;2022-09-13T09:50:21;25.20;99.90
3919;DHT22;1974;48.670;8.994;2022-09-13T09:52:52;25.10;99.90
3919;DHT22;1974;48.670;8.994;2022-09-13T09:55:27;25.00;99.90
3919;DHT22;1974;48.670;8.994;2022-09-13T09:57:56;25.00;99.90
3919;DHT22;1974;48.670;8.994;2022-09-13T10:00:26;25.00;99.90
3919;DHT22;1974;48.670;8.994;2022-09-13T10:02:57;25.20;99.90
3919;DHT22;1974;48.670;8.994;2022-09-13T10:05:26;25.40;99.90
3919;DHT22;1974;48.670;8.994;2022-09-13T10:07:55;25.60;99.90
3919;DHT22;1974;48.670;8.994;2022-09-13T10:10:25;26.00;99.90
3919;DHT22;1974;48.670;8.994;2022-09-13T10:12:56;26.30;99.40
3919;DHT22;1974;48.670;8.994;2022-09-13T10:15:27;26.50;98.80
3919;DHT22;1974;48.670;8.994;2022-09-13T10:18:05;26.50;99.60
3919;DHT22;1974;48.670;8.994;2022-09-13T10:20:36;26.60;97.70
3919;DHT22;1974;48.670;8.994;2022-09-13T10:23:18;26.50;98.70
3919;DHT22;1974;48.670;8.994;2022-09-13T10:25:57;26.70;98.20
3919;DHT22;1974;48.670;8.994;2022-09-13T10:28:25;26.90;97.20
3919;DHT22;1974;48.670;8.994;2022-09-13T10:30:56;27.00;97.40
3919;DHT22;1974;48.670;8.994;2022-09-13T10:33:27;26.90;96.80
3919;DHT22;1974;48.670;8.994;2022-09-13T10:35:56;26.80;97.10
3919;DHT22;1974;48.670;8.994;2022-09-13T10:38:28;26.70;96.80
3919;DHT22;1974;48.670;8.994;2022-09-13T10:40:55;26.60;97.20
3919;DHT22;1974;48.670;8.994;2022-09-13T10:43:24;26.80;97.90
3919;DHT22;1974;48.670;8.994;2022-09-13T10:45:55;27.00;95.90
3919;DHT22;1974;48.670;8.994;2022-09-13T10:48:22;27.30;95.20
3919;DHT22;1974;48.670;8.994;2022-09-13T10:51:05;27.80;94.20
3919;DHT22;1974;48.670;8.994;2022-09-13T10:53:36;27.90;92.10
3919;DHT22;1974;48.670;8.994;2022-09-13T10:56:04;28.00;92.10
3919;DHT22;1974;48.670;8.994;2022-09-13T10:58:31;27.80;91.70
3919;DHT22;1974;48.670;8.994;2022-09-13T11:01:24;27.50;92.40
3919;DHT22;1974;48.670;8.994;2022-09-13T11:09:47;26.70;94.30
3919;DHT22;1974;48.670;8.994;2022-09-13T11:12:23;26.40;93.20
3919;DHT22;1974;48.670;8.994;2022-09-13T11:15:00;26.30;93.70
3919;DHT22;1974;48.670;8.994;2022-09-13T11:17:46;26.00;93.20
3919;DHT22;1974;48.670;8.994;2022-09-13T11:20:26;25.90;94.50
3919;DHT22;1974;48.670;8.994;2022-09-13T11:25:58;25.70;94.00
3919;DHT22;1974;48.670;8.994;2022-09-13T11:28:35;25.60;94.80
3919;DHT22;1974;48.670;8.994;2022-09-13T11:31:18;25.60;94.70
3919;DHT22;1974;48.670;8.994;2022-09-13T11:33:57;25.60;94.70
3919;DHT22;1974;48.670;8.994;2022-09-13T11:36:49;25.50;94.90
3919;DHT22;1974;48.670;8.994;2022-09-13T11:39:29;25.60;94.60
3919;DHT22;1974;48.670;8.994;2022-09-13T11:42:04;25.60;94.90
3919;DHT22;1974;48.670;8.994;2022-09-13T11:45:14;25.60;94.80
3919;DHT22;1974;48.670;8.994;2022-09-13T11:47:52;25.60;94.20
3919;DHT22;1974;48.670;8.994;2022-09-13T11:50:32;25.60;94.90
3919;DHT22;1974;48.670;8.994;2022-09-13T11:53:26;25.60;93.90
3919;DHT22;1974;48.670;8.994;2022-09-13T11:55:57;25.60;92.80
3919;DHT22;1974;48.670;8.994;2022-09-13T11:58:28;25.60;93.70
3919;DHT22;1974;48.670;8.994;2022-09-13T12:00:59;25.70;95.10
3919;DHT22;1974;48.670;8.994;2022-09-13T12:03:30;25.80;94.20
3919;DHT22;1974;48.670;8.994;2022-09-13T12:06:04;25.80;94.40
3919;DHT22;1974;48.670;8.994;2022-09-13T12:08:37;25.90;93.70
3919;DHT22;1974;48.670;8.994;2022-09-13T12:11:09;25.80;94.10
3919;DHT22;1974;48.670;8.994;2022-09-13T12:13:42;25.90;94.40
3919;DHT22;1974;48.670;8.994;2022-09-13T12:16:13;25.80;94.50
3919;DHT22;1974;48.670;8.994;2022-09-13T12:18:43;25.80;94.80
3919;DHT22;1974;48.670;8.994;2022-09-13T12:21:14;25.70;94.50
3919;DHT22;1974;48.670;8.994;2022-09-13T12:23:48;25.70;95.10
3919;DHT22;1974;48.670;8.994;2022-09-13T12:26:20;25.60;95.00
3919;DHT22;1974;48.670;8.994;2022-09-13T12:28:52;25.60;94.20
3919;DHT22;1974;48.670;8.994;2022-09-13T12:31:21;25.60;91.20
3919;DHT22;1974;48.670;8.994;2022-09-13T12:33:49;25.60;91.80
3919;DHT22;1974;48.670;8.994;2022-09-13T12:42:39;25.70;92.40
3919;DHT22;1974;48.670;8.994;2022-09-13T12:45:24;25.60;91.90
3919;DHT22;1974;48.670;8.994;2022-09-13T12:48:16;25.70;91.50
3919;DHT22;1974;48.670;8.994;2022-09-13T12:51:07;25.80;90.60
3919;DHT22;1974;48.670;8.994;2022-09-13T12:56:53;25.70;90.30
3919;DHT22;1974;48.670;8.994;2022-09-13T12:59:37;25.80;90.50
3919;DHT22;1974;48.670;8.994;2022-09-13T13:02:25;25.70;90.60
3919;DHT22;1974;48.670;8.994;2022-09-13T13:04:55;25.50;90.80
3919;DHT22;1974;48.670;8.994;2022-09-13T13:07:23;25.50;91.60
3919;DHT22;1974;48.670;8.994;2022-09-13T13:09:53;25.40;91.30
3919;DHT22;1974;48.670;8.994;2022-09-13T13:12:29;25.40;90.70
3919;DHT22;1974;48.670;8.994;2022-09-13T13:14:57;25.40;91.30
3919;DHT22;1974;48.670;8.994;2022-09-13T13:17:45;25.40;91.20
3919;DHT22;1974;48.670;8.994;2022-09-13T13:20:38;25.30;91.90
3919;DHT22;1974;48.670;8.994;2022-09-13T13:23:16;25.20;92.20
3919;DHT22;1974;48.670;8.994;2022-09-13T13:26:00;25.20;92.80
3919;DHT22;1974;48.670;8.994;2022-09-13T13:31:36;25.10;93.10
3919;DHT22;1974;48.670;8.994;2022-09-13T13:34:30;25.10;92.40
3919;DHT22;1974;48.670;8.994;2022-09-13T13:37:01;25.10;93.40
3919;DHT22;1974;48.670;8.994;2022-09-13T13:39:46;25.00;93.30
3919;DHT22;1974;48.670;8.994;2022-09-13T13:42:25;25.00;93.60
3919;DHT22;1974;48.670;8.994;2022-09-13T13:45:15;24.90;93.90
3919;DHT22;1974;48.670;8.994;2022-09-13T13:48:11;25.00;92.20
3919;DHT22;1974;48.670;8.994;2022-09-13T13:51:11;25.00;92.80
3919;DHT22;1974;48.670;8.994;2022-09-13T13:53:39;24.90;93.50
3919;DHT22;1974;48.670;8.994;2022-09-13T13:56:19;24.90;93.90
3919;DHT22;1974;48.670;8.994;2022-09-13T13:58:49;24.80;93.70
3919;DHT22;1974;48.670;8.994;2022-09-13T14:01:21;24.80;92.00
3919;DHT22;1974;48.670;8.994;2022-09-13T14:03:57;25.00;89.90
3919;DHT22;1974;48.670;8.994;2022-09-13T14:06:30;25.10;87.80
3919;DHT22;1974;48.670;8.994;2022-09-13T14:09:04;25.30;86.10
3919;DHT22;1974;48.670;8.994;2022-09-13T14:11:41;25.30;86.60
3919;DHT22;1974;48.670;8.994;2022-09-13T14:14:32;25.30;88.70
3919;DHT22;1974;48.670;8.994;2022-09-13T14:17:28;25.20;83.90
3919;DHT22;1974;48.670;8.994;2022-09-13T14:19:59;25.20;83.50
3919;DHT22;1974;48.670;8.994;2022-09-13T14:22:27;25.20;84.50
3919;DHT22;1974;48.670;8.994;2022-09-13T14:24:55;25.20;84.40
3919;DHT22;1974;48.670;8.994;2022-09-13T14:27:25;25.20;82.90
3919;DHT22;1974;48.670;8.994;2022-09-13T14:29:55;25.10;80.90
3919;DHT22;1974;48.670;8.994;2022-09-13T14:32:25;25.10;81.80
3919;DHT22;1974;48.670;8.994;2022-09-13T14:34:55;25.10;83.90
3919;DHT22;1974;48.670;8.994;2022-09-13T14:37:26;25.00;86.50
3919;DHT22;1974;48.670;8.994;2022-09-13T14:39:56;24.90;87.00
3919;DHT22;1974;48.670;8.994;2022-09-13T14:42:23;24.80;87.50
3919;DHT22;1974;48.670;8.994;2022-09-13T14:44:50;24.80;88.40
3919;DHT22;1974;48.670;8.994;2022-09-13T14:47:23;24.70;86.90
3919;DHT22;1974;48.670;8.994;2022-09-13T14:49:57;24.60;84.10
3919;DHT22;1974;48.670;8.994;2022-09-13T14:52:28;24.60;83.90
3919;DHT22;1974;48.670;8.994;2022-09-13T14:54:59;24.60;85.70
3919;DHT22;1974;48.670;8.994;2022-09-13T14:57:30;24.60;84.50
3919;DHT22;1974;48.670;8.994;2022-09-13T15:00:01;24.80;85.00
3919;DHT22;1974;48.670;8.994;2022-09-13T15:02:31;24.80;84.80
3919;DHT22;1974;48.670;8.994;2022-09-13T15:05:05;24.90;83.50
3919;DHT22;1974;48.670;8.994;2022-09-13T15:07:36;25.10;80.60
3919;DHT22;1974;48.670;8.994;2022-09-13T15:10:08;25.10;79.60
3919;DHT22;1974;48.670;8.994;2022-09-13T15:12:50;25.10;81.10
3919;DHT22;1974;48.670;8.994;2022-09-13T15:15:29;25.10;80.10
3919;DHT22;1974;48.670;8.994;2022-09-13T15:18:00;25.10;80.10
3919;DHT22;1974;48.670;8.994;2022-09-13T15:20:29;25.10;79.50
3919;DHT22;1974;48.670;8.994;2022-09-13T15:22:57;25.10;78.80
3919;DHT22;1974;48.670;8.994;2022-09-13T15:25:26;25.10;78.00
3919;DHT22;1974;48.670;8.994;2022-09-13T15:27:54;25.00;78.50
3919;DHT22;1974;48.670;8.994;2022-09-13T15:30:24;25.10;78.30
3919;DHT22;1974;48.670;8.994;2022-09-13T15:33:18;25.00;77.80
3919;DHT22;1974;48.670;8.994;2022-09-13T15:35:46;25.10;79.40
3919;DHT22;1974;48.670;8.994;2022-09-13T15:38:17;25.10;78.90
3919;DHT22;1974;48.670;8.994;2022-09-13T15:40:52;25.10;78.00
3919;DHT22;1974;48.670;8.994;2022-09-13T15:43:22;25.20;77.00
3919;DHT22;1974;48.670;8.994;2022-09-13T15:45:49;25.20;77.90
3919;DHT22;1974;48.670;8.994;2022-09-13T15:48:23;25.20;78.50
3919;DHT22;1974;48.670;8.994;2022-09-13T15:51:04;25.20;78.80
3919;DHT22;1974;48.670;8.994;2022-09-13T15:53:31;25.10;80.00
3919;DHT22;1974;48.670;8.994;2022-09-13T15:56:00;25.10;80.30
3919;DHT22;1974;48.670;8.994;2022-09-13T15:58:27;25.20;80.20
3919;DHT22;1974;48.670;8.994;2022-09-13T16:00:53;25.10;80.50
3919;DHT22;1974;48.670;8.994;2022-09-13T16:03:21;25.10;79.90
3919;DHT22;1974;48.670;8.994;2022-09-13T16:05:48;25.10;80.10
3919;DHT22;1974;48.670;8.994;2022-09-13T16:08:15;25.00;79.00
3919;DHT22;1974;48.670;8.994;2022-09-13T16:10:42;25.00;78.40
3919;DHT22;1974;48.670;8.994;2022-09-13T16:13:08;25.00;78.50
3919;DHT22;1974;48.670;8.994;2022-09-13T16:15:35;24.90;79.60
3919;DHT22;1974;48.670;8.994;2022-09-13T16:18:02;24.80;80.20
3919;DHT22;1974;48.670;8.994;2022-09-13T16:20:30;24.70;80.00
3919;DHT22;1974;48.670;8.994;2022-09-13T16:22:57;24.70;79.50
3919;DHT22;1974;48.670;8.994;2022-09-13T16:25:23;24.60;79.80
3919;DHT22;1974;48.670;8.994;2022-09-13T16:27:50;24.60;79.50
3919;DHT22;1974;48.670;8.994;2022-09-13T16:30:20;24.60;79.40
3919;DHT22;1974;48.670;8.994;2022-09-13T16:32:48;24.50;79.60
3919;DHT22;1974;48.670;8.994;2022-09-13T16:35:15;24.50;80.60
3919;DHT22;1974;48.670;8.994;2022-09-13T16:37:45;24.40;82.10
3919;DHT22;1974;48.670;8.994;2022-09-13T16:40:17;24.30;81.90
3919;DHT22;1974;48.670;8.994;2022-09-13T16:42:44;24.30;84.10
3919;DHT22;1974;48.670;8.994;2022-09-13T16:45:12;24.20;84.60
3919;DHT22;1974;48.670;8.994;2022-09-13T16:47:39;24.10;85.40
3919;DHT22;1974;48.670;8.994;2022-09-13T16:50:07;24.10;84.30
3919;DHT22;1974;48.670;8.994;2022-09-13T16:52:35;24.00;83.00